Aviation Digital Data Service (ADDS)

Output produced by METARs form (1527 UTC 20 March 2019)
found at http://www.aviationweather.gov/metar/data/
 
METAR text: YSNF 201500Z AUTO 07011KT 9999 // SCT018 21/18 Q1017 RF00.0/000.2
Conditions at: YSNF (NORFOLK ISLAND A, AU) observed 1500 UTC 20 March 2019
Temperature: 21.0°C (70°F)
Dewpoint: 18.0°C (64°F) [RH = 83%]
Pressure (altimeter): 30.03 inches Hg (1017.0 mb)
Winds: from the ENE (70 degrees) at 13 MPH (11 knots; 5.7 m/s)
Visibility: 6 or more miles (10+ km)
Ceiling: at least 12,000 feet AGL
Clouds: scattered clouds at 1800 feet AGL
Weather: no significant weather observed at this time

METAR text: YSNF 201430Z AUTO 07013KT 9999 // SCT016 SCT024 21/18 Q1018
Conditions at: YSNF (NORFOLK ISLAND A, AU) observed 1430 UTC 20 March 2019
Temperature: 21.0°C (70°F)
Dewpoint: 18.0°C (64°F) [RH = 83%]
Pressure (altimeter): 30.06 inches Hg (1018.0 mb)
Winds: from the ENE (70 degrees) at 15 MPH (13 knots; 6.7 m/s)
Visibility: 6 or more miles (10+ km)
Ceiling: at least 12,000 feet AGL
Clouds: scattered clouds at 1600 feet AGL
scattered clouds at 2400 feet AGL
Weather: no significant weather observed at this time

METAR text: YSNF 201400Z AUTO 08011KT 9999 // SCT016 21/19 Q1018 RF00.0/000.2
Conditions at: YSNF (NORFOLK ISLAND A, AU) observed 1400 UTC 20 March 2019
Temperature: 21.0°C (70°F)
Dewpoint: 19.0°C (66°F) [RH = 88%]
Pressure (altimeter): 30.06 inches Hg (1018.0 mb)
Winds: from the E (80 degrees) at 13 MPH (11 knots; 5.7 m/s)
Visibility: 6 or more miles (10+ km)
Ceiling: at least 12,000 feet AGL
Clouds: scattered clouds at 1600 feet AGL
Weather: no significant weather observed at this time

METAR text: YSNF 201334Z AUTO 08011KT 9999 // SCT014 21/18 Q1018 RF00/0/000/2
Conditions at: YSNF (NORFOLK ISLAND A, AU) observed 1334 UTC 20 March 2019
Temperature: 21.0°C (70°F)
Dewpoint: 18.0°C (64°F) [RH = 83%]
Pressure (altimeter): 30.06 inches Hg (1018.0 mb)
Winds: from the E (80 degrees) at 13 MPH (11 knots; 5.7 m/s)
Visibility: 6 or more miles (10+ km)
Ceiling: at least 12,000 feet AGL
Clouds: scattered clouds at 1400 feet AGL
Weather: no significant weather observed at this time

METAR text: YSNF 201330Z AUTO 08012KT 9999 // SCT014 SCT052 21/19 Q1018
Conditions at: YSNF (NORFOLK ISLAND A, AU) observed 1330 UTC 20 March 2019
Temperature: 21.0°C (70°F)
Dewpoint: 19.0°C (66°F) [RH = 88%]
Pressure (altimeter): 30.06 inches Hg (1018.0 mb)
Winds: from the E (80 degrees) at 14 MPH (12 knots; 6.2 m/s)
Visibility: 6 or more miles (10+ km)
Ceiling: at least 12,000 feet AGL
Clouds: scattered clouds at 1400 feet AGL
scattered clouds at 5200 feet AGL
Weather: no significant weather observed at this time

METAR text: YSNF 201300Z AUTO 08012KT 9999 -SHRA BKN014 BKN028 BKN051 22/19 Q1018
Conditions at: YSNF (NORFOLK ISLAND A, AU) observed 1300 UTC 20 March 2019
Temperature: 22.0°C (72°F)
Dewpoint: 19.0°C (66°F) [RH = 83%]
Pressure (altimeter): 30.06 inches Hg (1018.0 mb)
Winds: from the E (80 degrees) at 14 MPH (12 knots; 6.2 m/s)
Visibility: 6 or more miles (10+ km)
Ceiling: 1400 feet AGL
Clouds: broken clouds at 1400 feet AGL
broken clouds at 2800 feet AGL
broken clouds at 5100 feet AGL
Weather: -SHRA  (light rain showers)

METAR text: YSNF 201249Z AUTO 08012KT 9999 -RA BKN014 BKN024 BKN062 22/19 Q1018
Conditions at: YSNF (NORFOLK ISLAND A, AU) observed 1249 UTC 20 March 2019
Temperature: 22.0°C (72°F)
Dewpoint: 19.0°C (66°F) [RH = 83%]
Pressure (altimeter): 30.06 inches Hg (1018.0 mb)
Winds: from the E (80 degrees) at 14 MPH (12 knots; 6.2 m/s)
Visibility: 6 or more miles (10+ km)
Ceiling: 1400 feet AGL
Clouds: broken clouds at 1400 feet AGL
broken clouds at 2400 feet AGL
broken clouds at 6200 feet AGL
Weather: -RA  (light rain)

METAR text: YSNF 201230Z AUTO 08010KT 9999 // SCT018 SCT021 BKN025 22/19 Q1018
Conditions at: YSNF (NORFOLK ISLAND A, AU) observed 1230 UTC 20 March 2019
Temperature: 22.0°C (72°F)
Dewpoint: 19.0°C (66°F) [RH = 83%]
Pressure (altimeter): 30.06 inches Hg (1018.0 mb)
Winds: from the E (80 degrees) at 12 MPH (10 knots; 5.1 m/s)
Visibility: 6 or more miles (10+ km)
Ceiling: 2500 feet AGL
Clouds: scattered clouds at 1800 feet AGL
scattered clouds at 2100 feet AGL
broken clouds at 2500 feet AGL
Weather: no significant weather observed at this time

METAR text: YSNF 201200Z AUTO 08009KT 9999 // BKN018 BKN025 OVC064 22/19 Q1018
Conditions at: YSNF (NORFOLK ISLAND A, AU) observed 1200 UTC 20 March 2019
Temperature: 22.0°C (72°F)
Dewpoint: 19.0°C (66°F) [RH = 83%]
Pressure (altimeter): 30.06 inches Hg (1018.0 mb)
Winds: from the E (80 degrees) at 10 MPH (9 knots; 4.6 m/s)
Visibility: 6 or more miles (10+ km)
Ceiling: 1800 feet AGL
Clouds: broken clouds at 1800 feet AGL
broken clouds at 2500 feet AGL
overcast cloud deck at 6400 feet AGL
Weather: no significant weather observed at this time

METAR text: YSNF 201130Z AUTO 08010KT 9999 // SCT018 SCT026 SCT046 22/19 Q1018
Conditions at: YSNF (NORFOLK ISLAND A, AU) observed 1130 UTC 20 March 2019
Temperature: 22.0°C (72°F)
Dewpoint: 19.0°C (66°F) [RH = 83%]
Pressure (altimeter): 30.06 inches Hg (1018.0 mb)
Winds: from the E (80 degrees) at 12 MPH (10 knots; 5.1 m/s)
Visibility: 6 or more miles (10+ km)
Ceiling: at least 12,000 feet AGL
Clouds: scattered clouds at 1800 feet AGL
scattered clouds at 2600 feet AGL
scattered clouds at 4600 feet AGL
Weather: no significant weather observed at this time

METAR text: YSNF 201100Z AUTO 08010KT 9999 // SCT017 SCT025 BKN039 22/19 Q1018
Conditions at: YSNF (NORFOLK ISLAND A, AU) observed 1100 UTC 20 March 2019
Temperature: 22.0°C (72°F)
Dewpoint: 19.0°C (66°F) [RH = 83%]
Pressure (altimeter): 30.06 inches Hg (1018.0 mb)
Winds: from the E (80 degrees) at 12 MPH (10 knots; 5.1 m/s)
Visibility: 6 or more miles (10+ km)
Ceiling: 3900 feet AGL
Clouds: scattered clouds at 1700 feet AGL
scattered clouds at 2500 feet AGL
broken clouds at 3900 feet AGL
Weather: no significant weather observed at this time

METAR text: YSNF 201030Z AUTO 08009KT 9999 // BKN041 OVC048 22/18 Q1018
Conditions at: YSNF (NORFOLK ISLAND A, AU) observed 1030 UTC 20 March 2019
Temperature: 22.0°C (72°F)
Dewpoint: 18.0°C (64°F) [RH = 78%]
Pressure (altimeter): 30.06 inches Hg (1018.0 mb)
Winds: from the E (80 degrees) at 10 MPH (9 knots; 4.6 m/s)
Visibility: 6 or more miles (10+ km)
Ceiling: 4100 feet AGL
Clouds: broken clouds at 4100 feet AGL
overcast cloud deck at 4800 feet AGL
Weather: no significant weather observed at this time

METAR text: YSNF 201000Z AUTO 07011KT 9999 // BKN055 BKN064 22/18 Q1018
Conditions at: YSNF (NORFOLK ISLAND A, AU) observed 1000 UTC 20 March 2019
Temperature: 22.0°C (72°F)
Dewpoint: 18.0°C (64°F) [RH = 78%]
Pressure (altimeter): 30.06 inches Hg (1018.0 mb)
Winds: from the ENE (70 degrees) at 13 MPH (11 knots; 5.7 m/s)
Visibility: 6 or more miles (10+ km)
Ceiling: 5500 feet AGL
Clouds: broken clouds at 5500 feet AGL
broken clouds at 6400 feet AGL
Weather: no significant weather observed at this time

METAR text: YSNF 200930Z AUTO 06010KT 9999 // OVC060 OVC069 22/18 Q1018
Conditions at: YSNF (NORFOLK ISLAND A, AU) observed 0930 UTC 20 March 2019
Temperature: 22.0°C (72°F)
Dewpoint: 18.0°C (64°F) [RH = 78%]
Pressure (altimeter): 30.06 inches Hg (1018.0 mb)
Winds: from the ENE (60 degrees) at 12 MPH (10 knots; 5.1 m/s)
Visibility: 6 or more miles (10+ km)
Ceiling: 6000 feet AGL
Clouds: overcast cloud deck at 6000 feet AGL
overcast cloud deck at 6900 feet AGL
Weather: no significant weather observed at this time

METAR text: YSNF 200900Z AUTO 06011KT 9999 // SCT047 SCT058 BKN066 22/18 Q1018
Conditions at: YSNF (NORFOLK ISLAND A, AU) observed 0900 UTC 20 March 2019
Temperature: 22.0°C (72°F)
Dewpoint: 18.0°C (64°F) [RH = 78%]
Pressure (altimeter): 30.06 inches Hg (1018.0 mb)
Winds: from the ENE (60 degrees) at 13 MPH (11 knots; 5.7 m/s)
Visibility: 6 or more miles (10+ km)
Ceiling: 6600 feet AGL
Clouds: scattered clouds at 4700 feet AGL
scattered clouds at 5800 feet AGL
broken clouds at 6600 feet AGL
Weather: no significant weather observed at this time

METAR text: YSNF 200830Z AUTO 06012KT 9999 // SCT047 21/18 Q1018 RF00.0/000.0
Conditions at: YSNF (NORFOLK ISLAND A, AU) observed 0830 UTC 20 March 2019
Temperature: 21.0°C (70°F)
Dewpoint: 18.0°C (64°F) [RH = 83%]
Pressure (altimeter): 30.06 inches Hg (1018.0 mb)
Winds: from the ENE (60 degrees) at 14 MPH (12 knots; 6.2 m/s)
Visibility: 6 or more miles (10+ km)
Ceiling: at least 12,000 feet AGL
Clouds: scattered clouds at 4700 feet AGL
Weather: no significant weather observed at this time

METAR text: YSNF 200800Z AUTO 07012KT 9999 // NCD 21/18 Q1017 RF00.0/000.0
Conditions at: YSNF (NORFOLK ISLAND A, AU) observed 0800 UTC 20 March 2019
Temperature: 21.0°C (70°F)
Dewpoint: 18.0°C (64°F) [RH = 83%]
Pressure (altimeter): 30.03 inches Hg (1017.0 mb)
Winds: from the ENE (70 degrees) at 14 MPH (12 knots; 6.2 m/s)
Visibility: 6 or more miles (10+ km)
Ceiling: at least 12,000 feet AGL
Clouds: sky clear below 12,000 feet AGL
Weather: no significant weather observed at this time

METAR text: YSNF 200730Z AUTO 07011KT 9999 // NCD 21/18 Q1017 RF00.0/000.0
Conditions at: YSNF (NORFOLK ISLAND A, AU) observed 0730 UTC 20 March 2019
Temperature: 21.0°C (70°F)
Dewpoint: 18.0°C (64°F) [RH = 83%]
Pressure (altimeter): 30.03 inches Hg (1017.0 mb)
Winds: from the ENE (70 degrees) at 13 MPH (11 knots; 5.7 m/s)
Visibility: 6 or more miles (10+ km)
Ceiling: at least 12,000 feet AGL
Clouds: sky clear below 12,000 feet AGL
Weather: no significant weather observed at this time

METAR text: YSNF 200700Z AUTO 07009KT 9999 // NCD 21/19 Q1017
Conditions at: YSNF (NORFOLK ISLAND A, AU) observed 0700 UTC 20 March 2019
Temperature: 21.0°C (70°F)
Dewpoint: 19.0°C (66°F) [RH = 88%]
Pressure (altimeter): 30.03 inches Hg (1017.0 mb)
Winds: from the ENE (70 degrees) at 10 MPH (9 knots; 4.6 m/s)
Visibility: 6 or more miles (10+ km)
Ceiling: at least 12,000 feet AGL
Clouds: sky clear below 12,000 feet AGL
Weather: no significant weather observed at this time

METAR text: YSNF 200630Z AUTO 07012KT 9999 // SCT012 SCT019 22/19 Q1017
Conditions at: YSNF (NORFOLK ISLAND A, AU) observed 0630 UTC 20 March 2019
Temperature: 22.0°C (72°F)
Dewpoint: 19.0°C (66°F) [RH = 83%]
Pressure (altimeter): 30.03 inches Hg (1017.0 mb)
Winds: from the ENE (70 degrees) at 14 MPH (12 knots; 6.2 m/s)
Visibility: 6 or more miles (10+ km)
Ceiling: at least 12,000 feet AGL
Clouds: scattered clouds at 1200 feet AGL
scattered clouds at 1900 feet AGL
Weather: no significant weather observed at this time

METAR text: YSNF 200629Z AUTO 07012KT 9999 // SCT012 BKN022 22/19 Q1017
Conditions at: YSNF (NORFOLK ISLAND A, AU) observed 0629 UTC 20 March 2019
Temperature: 22.0°C (72°F)
Dewpoint: 19.0°C (66°F) [RH = 83%]
Pressure (altimeter): 30.03 inches Hg (1017.0 mb)
Winds: from the ENE (70 degrees) at 14 MPH (12 knots; 6.2 m/s)
Visibility: 6 or more miles (10+ km)
Ceiling: 2200 feet AGL
Clouds: scattered clouds at 1200 feet AGL
broken clouds at 2200 feet AGL
Weather: no significant weather observed at this time

METAR text: YSNF 200600Z AUTO 08011KT 9999 // BKN014 BKN021 22/19 Q1017
Conditions at: YSNF (NORFOLK ISLAND A, AU) observed 0600 UTC 20 March 2019
Temperature: 22.0°C (72°F)
Dewpoint: 19.0°C (66°F) [RH = 83%]
Pressure (altimeter): 30.03 inches Hg (1017.0 mb)
Winds: from the E (80 degrees) at 13 MPH (11 knots; 5.7 m/s)
Visibility: 6 or more miles (10+ km)
Ceiling: 1400 feet AGL
Clouds: broken clouds at 1400 feet AGL
broken clouds at 2100 feet AGL
Weather: no significant weather observed at this time

METAR text: YSNF 200548Z AUTO 08011KT 9999 // BKN014 22/19 Q1017 RF00/0/000/0
Conditions at: YSNF (NORFOLK ISLAND A, AU) observed 0548 UTC 20 March 2019
Temperature: 22.0°C (72°F)
Dewpoint: 19.0°C (66°F) [RH = 83%]
Pressure (altimeter): 30.03 inches Hg (1017.0 mb)
Winds: from the E (80 degrees) at 13 MPH (11 knots; 5.7 m/s)
Visibility: 6 or more miles (10+ km)
Ceiling: 1400 feet AGL
Clouds: broken clouds at 1400 feet AGL
Weather: no significant weather observed at this time

METAR text: YSNF 200530Z AUTO 08012KT 9999 // SCT016 23/19 Q1017 RF00.0/000.0
Conditions at: YSNF (NORFOLK ISLAND A, AU) observed 0530 UTC 20 March 2019
Temperature: 23.0°C (73°F)
Dewpoint: 19.0°C (66°F) [RH = 78%]
Pressure (altimeter): 30.03 inches Hg (1017.0 mb)
Winds: from the E (80 degrees) at 14 MPH (12 knots; 6.2 m/s)
Visibility: 6 or more miles (10+ km)
Ceiling: at least 12,000 feet AGL
Clouds: scattered clouds at 1600 feet AGL
Weather: no significant weather observed at this time

METAR text: YSNF 200500Z AUTO 08011KT 9999 // SCT016 SCT022 23/19 Q1017
Conditions at: YSNF (NORFOLK ISLAND A, AU) observed 0500 UTC 20 March 2019
Temperature: 23.0°C (73°F)
Dewpoint: 19.0°C (66°F) [RH = 78%]
Pressure (altimeter): 30.03 inches Hg (1017.0 mb)
Winds: from the E (80 degrees) at 13 MPH (11 knots; 5.7 m/s)
Visibility: 6 or more miles (10+ km)
Ceiling: at least 12,000 feet AGL
Clouds: scattered clouds at 1600 feet AGL
scattered clouds at 2200 feet AGL
Weather: no significant weather observed at this time

METAR text: YSNF 200430Z AUTO 08011KT 9999 -SHRA SCT016 SCT024 BKN044 23/19 Q1017
Conditions at: YSNF (NORFOLK ISLAND A, AU) observed 0430 UTC 20 March 2019
Temperature: 23.0°C (73°F)
Dewpoint: 19.0°C (66°F) [RH = 78%]
Pressure (altimeter): 30.03 inches Hg (1017.0 mb)
Winds: from the E (80 degrees) at 13 MPH (11 knots; 5.7 m/s)
Visibility: 6 or more miles (10+ km)
Ceiling: 4400 feet AGL
Clouds: scattered clouds at 1600 feet AGL
scattered clouds at 2400 feet AGL
broken clouds at 4400 feet AGL
Weather: -SHRA  (light rain showers)

METAR text: YSNF 200400Z AUTO 09013KT 9999 // SCT016 BKN021 BKN028 23/19 Q1017
Conditions at: YSNF (NORFOLK ISLAND A, AU) observed 0400 UTC 20 March 2019
Temperature: 23.0°C (73°F)
Dewpoint: 19.0°C (66°F) [RH = 78%]
Pressure (altimeter): 30.03 inches Hg (1017.0 mb)
Winds: from the E (90 degrees) at 15 MPH (13 knots; 6.7 m/s)
Visibility: 6 or more miles (10+ km)
Ceiling: 2100 feet AGL
Clouds: scattered clouds at 1600 feet AGL
broken clouds at 2100 feet AGL
broken clouds at 2800 feet AGL
Weather: no significant weather observed at this time

METAR text: YSNF 200330Z AUTO 09010KT 9999 // BKN018 24/19 Q1017 RF00.0/000.0
Conditions at: YSNF (NORFOLK ISLAND A, AU) observed 0330 UTC 20 March 2019
Temperature: 24.0°C (75°F)
Dewpoint: 19.0°C (66°F) [RH = 74%]
Pressure (altimeter): 30.03 inches Hg (1017.0 mb)
Winds: from the E (90 degrees) at 12 MPH (10 knots; 5.1 m/s)
Visibility: 6 or more miles (10+ km)
Ceiling: 1800 feet AGL
Clouds: broken clouds at 1800 feet AGL
Weather: no significant weather observed at this time

METAR text: YSNF 200300Z AUTO 08013KT 9999 // BKN016 BKN021 24/18 Q1017
Conditions at: YSNF (NORFOLK ISLAND A, AU) observed 0300 UTC 20 March 2019
Temperature: 24.0°C (75°F)
Dewpoint: 18.0°C (64°F) [RH = 69%]
Pressure (altimeter): 30.03 inches Hg (1017.0 mb)
Winds: from the E (80 degrees) at 15 MPH (13 knots; 6.7 m/s)
Visibility: 6 or more miles (10+ km)
Ceiling: 1600 feet AGL
Clouds: broken clouds at 1600 feet AGL
broken clouds at 2100 feet AGL
Weather: no significant weather observed at this time

METAR text: YSNF 200230Z AUTO 09013KT 9999 // BKN018 23/19 Q1017 RF00.0/000.0
Conditions at: YSNF (NORFOLK ISLAND A, AU) observed 0230 UTC 20 March 2019
Temperature: 23.0°C (73°F)
Dewpoint: 19.0°C (66°F) [RH = 78%]
Pressure (altimeter): 30.03 inches Hg (1017.0 mb)
Winds: from the E (90 degrees) at 15 MPH (13 knots; 6.7 m/s)
Visibility: 6 or more miles (10+ km)
Ceiling: 1800 feet AGL
Clouds: broken clouds at 1800 feet AGL
Weather: no significant weather observed at this time

METAR text: YSNF 200200Z AUTO 08014KT 9999 // BKN020 24/19 Q1017 RF00.0/000.0
Conditions at: YSNF (NORFOLK ISLAND A, AU) observed 0200 UTC 20 March 2019
Temperature: 24.0°C (75°F)
Dewpoint: 19.0°C (66°F) [RH = 74%]
Pressure (altimeter): 30.03 inches Hg (1017.0 mb)
Winds: from the E (80 degrees) at 16 MPH (14 knots; 7.2 m/s)
Visibility: 6 or more miles (10+ km)
Ceiling: 2000 feet AGL
Clouds: broken clouds at 2000 feet AGL
Weather: no significant weather observed at this time

METAR text: YSNF 200130Z 08013KT 9999 FEW020 BKN300 25/19 Q1018 RF00.0/000.0
Conditions at: YSNF (NORFOLK ISLAND A, AU) observed 0130 UTC 20 March 2019
Temperature: 25.0°C (77°F)
Dewpoint: 19.0°C (66°F) [RH = 69%]
Pressure (altimeter): 30.06 inches Hg (1018.0 mb)
Winds: from the E (80 degrees) at 15 MPH (13 knots; 6.7 m/s)
Visibility: 6 or more miles (10+ km)
Ceiling: 30000 feet AGL
Clouds: few clouds at 2000 feet AGL
broken clouds at 30000 feet AGL
Weather: no significant weather observed at this time

METAR text: YSNF 200100Z 09013KT 9999 FEW020 BKN300 24/18 Q1018 RF00.0/000.0
Conditions at: YSNF (NORFOLK ISLAND A, AU) observed 0100 UTC 20 March 2019
Temperature: 24.0°C (75°F)
Dewpoint: 18.0°C (64°F) [RH = 69%]
Pressure (altimeter): 30.06 inches Hg (1018.0 mb)
Winds: from the E (90 degrees) at 15 MPH (13 knots; 6.7 m/s)
Visibility: 6 or more miles (10+ km)
Ceiling: 30000 feet AGL
Clouds: few clouds at 2000 feet AGL
broken clouds at 30000 feet AGL
Weather: no significant weather observed at this time

METAR text: YSNF 200030Z 08013KT 9999 FEW021 BKN300 24/19 Q1018 RF00.0/000.0
Conditions at: YSNF (NORFOLK ISLAND A, AU) observed 0030 UTC 20 March 2019
Temperature: 24.0°C (75°F)
Dewpoint: 19.0°C (66°F) [RH = 74%]
Pressure (altimeter): 30.06 inches Hg (1018.0 mb)
Winds: from the E (80 degrees) at 15 MPH (13 knots; 6.7 m/s)
Visibility: 6 or more miles (10+ km)
Ceiling: 30000 feet AGL
Clouds: few clouds at 2100 feet AGL
broken clouds at 30000 feet AGL
Weather: no significant weather observed at this time

METAR text: YSNF 200000Z 09013KT 9999 FEW021 SCT300 25/19 Q1019 RF00.0/000.0
Conditions at: YSNF (NORFOLK ISLAND A, AU) observed 0000 UTC 20 March 2019
Temperature: 25.0°C (77°F)
Dewpoint: 19.0°C (66°F) [RH = 69%]
Pressure (altimeter): 30.09 inches Hg (1019.0 mb)
Winds: from the E (90 degrees) at 15 MPH (13 knots; 6.7 m/s)
Visibility: 6 or more miles (10+ km)
Ceiling: at least 12,000 feet AGL
Clouds: few clouds at 2100 feet AGL
scattered clouds at 30000 feet AGL
Weather: no significant weather observed at this time

METAR text: YSNF 192330Z 08014KT 9999 FEW023 SCT300 24/19 Q1019 RF00.0/000.0
Conditions at: YSNF (NORFOLK ISLAND A, AU) observed 2330 UTC 19 March 2019
Temperature: 24.0°C (75°F)
Dewpoint: 19.0°C (66°F) [RH = 74%]
Pressure (altimeter): 30.09 inches Hg (1019.0 mb)
Winds: from the E (80 degrees) at 16 MPH (14 knots; 7.2 m/s)
Visibility: 6 or more miles (10+ km)
Ceiling: at least 12,000 feet AGL
Clouds: few clouds at 2300 feet AGL
scattered clouds at 30000 feet AGL
Weather: no significant weather observed at this time

METAR text: YSNF 192300Z 08013KT 9999 FEW021 SCT300 24/19 Q1019 RF00.0/000.0
Conditions at: YSNF (NORFOLK ISLAND A, AU) observed 2300 UTC 19 March 2019
Temperature: 24.0°C (75°F)
Dewpoint: 19.0°C (66°F) [RH = 74%]
Pressure (altimeter): 30.09 inches Hg (1019.0 mb)
Winds: from the E (80 degrees) at 15 MPH (13 knots; 6.7 m/s)
Visibility: 6 or more miles (10+ km)
Ceiling: at least 12,000 feet AGL
Clouds: few clouds at 2100 feet AGL
scattered clouds at 30000 feet AGL
Weather: no significant weather observed at this time

METAR text: YSNF 192230Z 09013KT 9999 FEW019 BKN300 24/19 Q1018 RF00.0/000.0
Conditions at: YSNF (NORFOLK ISLAND A, AU) observed 2230 UTC 19 March 2019
Temperature: 24.0°C (75°F)
Dewpoint: 19.0°C (66°F) [RH = 74%]
Pressure (altimeter): 30.06 inches Hg (1018.0 mb)
Winds: from the E (90 degrees) at 15 MPH (13 knots; 6.7 m/s)
Visibility: 6 or more miles (10+ km)
Ceiling: 30000 feet AGL
Clouds: few clouds at 1900 feet AGL
broken clouds at 30000 feet AGL
Weather: no significant weather observed at this time

METAR text: YSNF 192200Z 07014KT 9999 FEW019 SCT300 24/18 Q1018 RF00.0/000.0
Conditions at: YSNF (NORFOLK ISLAND A, AU) observed 2200 UTC 19 March 2019
Temperature: 24.0°C (75°F)
Dewpoint: 18.0°C (64°F) [RH = 69%]
Pressure (altimeter): 30.06 inches Hg (1018.0 mb)
Winds: from the ENE (70 degrees) at 16 MPH (14 knots; 7.2 m/s)
Visibility: 6 or more miles (10+ km)
Ceiling: at least 12,000 feet AGL
Clouds: few clouds at 1900 feet AGL
scattered clouds at 30000 feet AGL
Weather: no significant weather observed at this time

METAR text: YSNF 192130Z 08015KT 9999 FEW019 24/18 Q1018
Conditions at: YSNF (NORFOLK ISLAND A, AU) observed 2130 UTC 19 March 2019
Temperature: 24.0°C (75°F)
Dewpoint: 18.0°C (64°F) [RH = 69%]
Pressure (altimeter): 30.06 inches Hg (1018.0 mb)
Winds: from the E (80 degrees) at 17 MPH (15 knots; 7.7 m/s)
Visibility: 6 or more miles (10+ km)
Ceiling: at least 12,000 feet AGL
Clouds: few clouds at 1900 feet AGL
Weather: no significant weather observed at this time

METAR text: YSNF 192100Z AUTO 08014KT 9999 // NCD 23/18 Q1018
Conditions at: YSNF (NORFOLK ISLAND A, AU) observed 2100 UTC 19 March 2019
Temperature: 23.0°C (73°F)
Dewpoint: 18.0°C (64°F) [RH = 73%]
Pressure (altimeter): 30.06 inches Hg (1018.0 mb)
Winds: from the E (80 degrees) at 16 MPH (14 knots; 7.2 m/s)
Visibility: 6 or more miles (10+ km)
Ceiling: at least 12,000 feet AGL
Clouds: sky clear below 12,000 feet AGL
Weather: no significant weather observed at this time

METAR text: YSNF 192030Z AUTO 08013KT 9999 // SCT019 23/18 Q1018 RF00.0/000.0
Conditions at: YSNF (NORFOLK ISLAND A, AU) observed 2030 UTC 19 March 2019
Temperature: 23.0°C (73°F)
Dewpoint: 18.0°C (64°F) [RH = 73%]
Pressure (altimeter): 30.06 inches Hg (1018.0 mb)
Winds: from the E (80 degrees) at 15 MPH (13 knots; 6.7 m/s)
Visibility: 6 or more miles (10+ km)
Ceiling: at least 12,000 feet AGL
Clouds: scattered clouds at 1900 feet AGL
Weather: no significant weather observed at this time

METAR text: YSNF 192000Z AUTO 08012KT 9999 // SCT019 22/18 Q1018 RF00.0/000.0
Conditions at: YSNF (NORFOLK ISLAND A, AU) observed 2000 UTC 19 March 2019
Temperature: 22.0°C (72°F)
Dewpoint: 18.0°C (64°F) [RH = 78%]
Pressure (altimeter): 30.06 inches Hg (1018.0 mb)
Winds: from the E (80 degrees) at 14 MPH (12 knots; 6.2 m/s)
Visibility: 6 or more miles (10+ km)
Ceiling: at least 12,000 feet AGL
Clouds: scattered clouds at 1900 feet AGL
Weather: no significant weather observed at this time

METAR text: YSNF 191930Z AUTO 07010KT 9999 // SCT019 SCT023 BKN036 21/18 Q1018
Conditions at: YSNF (NORFOLK ISLAND A, AU) observed 1930 UTC 19 March 2019
Temperature: 21.0°C (70°F)
Dewpoint: 18.0°C (64°F) [RH = 83%]
Pressure (altimeter): 30.06 inches Hg (1018.0 mb)
Winds: from the ENE (70 degrees) at 12 MPH (10 knots; 5.1 m/s)
Visibility: 6 or more miles (10+ km)
Ceiling: 3600 feet AGL
Clouds: scattered clouds at 1900 feet AGL
scattered clouds at 2300 feet AGL
broken clouds at 3600 feet AGL
Weather: no significant weather observed at this time

METAR text: YSNF 191900Z AUTO 08009KT 9999 // SCT017 BKN021 21/18 Q1017
Conditions at: YSNF (NORFOLK ISLAND A, AU) observed 1900 UTC 19 March 2019
Temperature: 21.0°C (70°F)
Dewpoint: 18.0°C (64°F) [RH = 83%]
Pressure (altimeter): 30.03 inches Hg (1017.0 mb)
Winds: from the E (80 degrees) at 10 MPH (9 knots; 4.6 m/s)
Visibility: 6 or more miles (10+ km)
Ceiling: 2100 feet AGL
Clouds: scattered clouds at 1700 feet AGL
broken clouds at 2100 feet AGL
Weather: no significant weather observed at this time

METAR text: YSNF 191830Z AUTO 08011KT 9999 // BKN017 21/18 Q1017 RF00.0/000.0
Conditions at: YSNF (NORFOLK ISLAND A, AU) observed 1830 UTC 19 March 2019
Temperature: 21.0°C (70°F)
Dewpoint: 18.0°C (64°F) [RH = 83%]
Pressure (altimeter): 30.03 inches Hg (1017.0 mb)
Winds: from the E (80 degrees) at 13 MPH (11 knots; 5.7 m/s)
Visibility: 6 or more miles (10+ km)
Ceiling: 1700 feet AGL
Clouds: broken clouds at 1700 feet AGL
Weather: no significant weather observed at this time

METAR text: YSNF 191800Z AUTO 08012KT 9999 // SCT017 SCT022 SCT028 21/18 Q1017
Conditions at: YSNF (NORFOLK ISLAND A, AU) observed 1800 UTC 19 March 2019
Temperature: 21.0°C (70°F)
Dewpoint: 18.0°C (64°F) [RH = 83%]
Pressure (altimeter): 30.03 inches Hg (1017.0 mb)
Winds: from the E (80 degrees) at 14 MPH (12 knots; 6.2 m/s)
Visibility: 6 or more miles (10+ km)
Ceiling: at least 12,000 feet AGL
Clouds: scattered clouds at 1700 feet AGL
scattered clouds at 2200 feet AGL
scattered clouds at 2800 feet AGL
Weather: no significant weather observed at this time

METAR text: YSNF 191730Z AUTO 08011KT 9999 // SCT019 21/18 Q1017 RF00.0/000.0
Conditions at: YSNF (NORFOLK ISLAND A, AU) observed 1730 UTC 19 March 2019
Temperature: 21.0°C (70°F)
Dewpoint: 18.0°C (64°F) [RH = 83%]
Pressure (altimeter): 30.03 inches Hg (1017.0 mb)
Winds: from the E (80 degrees) at 13 MPH (11 knots; 5.7 m/s)
Visibility: 6 or more miles (10+ km)
Ceiling: at least 12,000 feet AGL
Clouds: scattered clouds at 1900 feet AGL
Weather: no significant weather observed at this time

METAR text: YSNF 191700Z AUTO 08013KT 9999 // SCT017 21/18 Q1017 RF00.0/000.0
Conditions at: YSNF (NORFOLK ISLAND A, AU) observed 1700 UTC 19 March 2019
Temperature: 21.0°C (70°F)
Dewpoint: 18.0°C (64°F) [RH = 83%]
Pressure (altimeter): 30.03 inches Hg (1017.0 mb)
Winds: from the E (80 degrees) at 15 MPH (13 knots; 6.7 m/s)
Visibility: 6 or more miles (10+ km)
Ceiling: at least 12,000 feet AGL
Clouds: scattered clouds at 1700 feet AGL
Weather: no significant weather observed at this time

METAR text: YSNF 191630Z AUTO 09013KT 9999 // SCT017 21/18 Q1017 RF00.0/000.0
Conditions at: YSNF (NORFOLK ISLAND A, AU) observed 1630 UTC 19 March 2019
Temperature: 21.0°C (70°F)
Dewpoint: 18.0°C (64°F) [RH = 83%]
Pressure (altimeter): 30.03 inches Hg (1017.0 mb)
Winds: from the E (90 degrees) at 15 MPH (13 knots; 6.7 m/s)
Visibility: 6 or more miles (10+ km)
Ceiling: at least 12,000 feet AGL
Clouds: scattered clouds at 1700 feet AGL
Weather: no significant weather observed at this time

METAR text: YSNF 191600Z AUTO 07016KT 9999 // SCT017 BKN021 BKN028 22/19 Q1017
Conditions at: YSNF (NORFOLK ISLAND A, AU) observed 1600 UTC 19 March 2019
Temperature: 22.0°C (72°F)
Dewpoint: 19.0°C (66°F) [RH = 83%]
Pressure (altimeter): 30.03 inches Hg (1017.0 mb)
Winds: from the ENE (70 degrees) at 18 MPH (16 knots; 8.2 m/s)
Visibility: 6 or more miles (10+ km)
Ceiling: 2100 feet AGL
Clouds: scattered clouds at 1700 feet AGL
broken clouds at 2100 feet AGL
broken clouds at 2800 feet AGL
Weather: no significant weather observed at this time

METAR text: YSNF 191530Z AUTO 07013KT 9999 // BKN017 BKN025 BKN052 22/19 Q1017
Conditions at: YSNF (NORFOLK ISLAND A, AU) observed 1530 UTC 19 March 2019
Temperature: 22.0°C (72°F)
Dewpoint: 19.0°C (66°F) [RH = 83%]
Pressure (altimeter): 30.03 inches Hg (1017.0 mb)
Winds: from the ENE (70 degrees) at 15 MPH (13 knots; 6.7 m/s)
Visibility: 6 or more miles (10+ km)
Ceiling: 1700 feet AGL
Clouds: broken clouds at 1700 feet AGL
broken clouds at 2500 feet AGL
broken clouds at 5200 feet AGL
Weather: no significant weather observed at this time

METAR text: YSNF 191500Z AUTO 09012KT 9999 // SCT015 SCT021 SCT058 21/19 Q1018
Conditions at: YSNF (NORFOLK ISLAND A, AU) observed 1500 UTC 19 March 2019
Temperature: 21.0°C (70°F)
Dewpoint: 19.0°C (66°F) [RH = 88%]
Pressure (altimeter): 30.06 inches Hg (1018.0 mb)
Winds: from the E (90 degrees) at 14 MPH (12 knots; 6.2 m/s)
Visibility: 6 or more miles (10+ km)
Ceiling: at least 12,000 feet AGL
Clouds: scattered clouds at 1500 feet AGL
scattered clouds at 2100 feet AGL
scattered clouds at 5800 feet AGL
Weather: no significant weather observed at this time

METAR text: YSNF 191430Z AUTO 08010KT 9999 // SCT015 SCT021 SCT028 22/19 Q1018
Conditions at: YSNF (NORFOLK ISLAND A, AU) observed 1430 UTC 19 March 2019
Temperature: 22.0°C (72°F)
Dewpoint: 19.0°C (66°F) [RH = 83%]
Pressure (altimeter): 30.06 inches Hg (1018.0 mb)
Winds: from the E (80 degrees) at 12 MPH (10 knots; 5.1 m/s)
Visibility: 6 or more miles (10+ km)
Ceiling: at least 12,000 feet AGL
Clouds: scattered clouds at 1500 feet AGL
scattered clouds at 2100 feet AGL
scattered clouds at 2800 feet AGL
Weather: no significant weather observed at this time

METAR text: YSNF 191400Z AUTO 08010KT 9999 // BKN015 BKN023 22/19 Q1018
Conditions at: YSNF (NORFOLK ISLAND A, AU) observed 1400 UTC 19 March 2019
Temperature: 22.0°C (72°F)
Dewpoint: 19.0°C (66°F) [RH = 83%]
Pressure (altimeter): 30.06 inches Hg (1018.0 mb)
Winds: from the E (80 degrees) at 12 MPH (10 knots; 5.1 m/s)
Visibility: 6 or more miles (10+ km)
Ceiling: 1500 feet AGL
Clouds: broken clouds at 1500 feet AGL
broken clouds at 2300 feet AGL
Weather: no significant weather observed at this time

METAR text: YSNF 191330Z AUTO 07012KT 9999 // BKN017 22/19 Q1018 RF00.0/000.0
Conditions at: YSNF (NORFOLK ISLAND A, AU) observed 1330 UTC 19 March 2019
Temperature: 22.0°C (72°F)
Dewpoint: 19.0°C (66°F) [RH = 83%]
Pressure (altimeter): 30.06 inches Hg (1018.0 mb)
Winds: from the ENE (70 degrees) at 14 MPH (12 knots; 6.2 m/s)
Visibility: 6 or more miles (10+ km)
Ceiling: 1700 feet AGL
Clouds: broken clouds at 1700 feet AGL
Weather: no significant weather observed at this time

METAR text: YSNF 191300Z AUTO 07011KT 9999 // SCT017 SCT022 SCT027 22/19 Q1019
Conditions at: YSNF (NORFOLK ISLAND A, AU) observed 1300 UTC 19 March 2019
Temperature: 22.0°C (72°F)
Dewpoint: 19.0°C (66°F) [RH = 83%]
Pressure (altimeter): 30.09 inches Hg (1019.0 mb)
Winds: from the ENE (70 degrees) at 13 MPH (11 knots; 5.7 m/s)
Visibility: 6 or more miles (10+ km)
Ceiling: at least 12,000 feet AGL
Clouds: scattered clouds at 1700 feet AGL
scattered clouds at 2200 feet AGL
scattered clouds at 2700 feet AGL
Weather: no significant weather observed at this time

METAR text: YSNF 191230Z AUTO 07009KT 9999 // SCT020 22/19 Q1019 RF00.0/000.0
Conditions at: YSNF (NORFOLK ISLAND A, AU) observed 1230 UTC 19 March 2019
Temperature: 22.0°C (72°F)
Dewpoint: 19.0°C (66°F) [RH = 83%]
Pressure (altimeter): 30.09 inches Hg (1019.0 mb)
Winds: from the ENE (70 degrees) at 10 MPH (9 knots; 4.6 m/s)
Visibility: 6 or more miles (10+ km)
Ceiling: at least 12,000 feet AGL
Clouds: scattered clouds at 2000 feet AGL
Weather: no significant weather observed at this time

METAR text: YSNF 191200Z AUTO 07010KT 9999 // SCT018 SCT028 22/19 Q1019
Conditions at: YSNF (NORFOLK ISLAND A, AU) observed 1200 UTC 19 March 2019
Temperature: 22.0°C (72°F)
Dewpoint: 19.0°C (66°F) [RH = 83%]
Pressure (altimeter): 30.09 inches Hg (1019.0 mb)
Winds: from the ENE (70 degrees) at 12 MPH (10 knots; 5.1 m/s)
Visibility: 6 or more miles (10+ km)
Ceiling: at least 12,000 feet AGL
Clouds: scattered clouds at 1800 feet AGL
scattered clouds at 2800 feet AGL
Weather: no significant weather observed at this time

METAR text: YSNF 191130Z AUTO 08010KT 9999 // BKN018 BKN024 BKN049 22/19 Q1019
Conditions at: YSNF (NORFOLK ISLAND A, AU) observed 1130 UTC 19 March 2019
Temperature: 22.0°C (72°F)
Dewpoint: 19.0°C (66°F) [RH = 83%]
Pressure (altimeter): 30.09 inches Hg (1019.0 mb)
Winds: from the E (80 degrees) at 12 MPH (10 knots; 5.1 m/s)
Visibility: 6 or more miles (10+ km)
Ceiling: 1800 feet AGL
Clouds: broken clouds at 1800 feet AGL
broken clouds at 2400 feet AGL
broken clouds at 4900 feet AGL
Weather: no significant weather observed at this time

METAR text: YSNF 191100Z AUTO 07011KT 9999 // SCT016 BKN022 BKN031 22/19 Q1019
Conditions at: YSNF (NORFOLK ISLAND A, AU) observed 1100 UTC 19 March 2019
Temperature: 22.0°C (72°F)
Dewpoint: 19.0°C (66°F) [RH = 83%]
Pressure (altimeter): 30.09 inches Hg (1019.0 mb)
Winds: from the ENE (70 degrees) at 13 MPH (11 knots; 5.7 m/s)
Visibility: 6 or more miles (10+ km)
Ceiling: 2200 feet AGL
Clouds: scattered clouds at 1600 feet AGL
broken clouds at 2200 feet AGL
broken clouds at 3100 feet AGL
Weather: no significant weather observed at this time

METAR text: YSNF 191030Z AUTO 07011KT 9999 // SCT019 BKN022 22/19 Q1019
Conditions at: YSNF (NORFOLK ISLAND A, AU) observed 1030 UTC 19 March 2019
Temperature: 22.0°C (72°F)
Dewpoint: 19.0°C (66°F) [RH = 83%]
Pressure (altimeter): 30.09 inches Hg (1019.0 mb)
Winds: from the ENE (70 degrees) at 13 MPH (11 knots; 5.7 m/s)
Visibility: 6 or more miles (10+ km)
Ceiling: 2200 feet AGL
Clouds: scattered clouds at 1900 feet AGL
broken clouds at 2200 feet AGL
Weather: no significant weather observed at this time

METAR text: YSNF 191000Z AUTO 08011KT 9999 // BKN019 22/19 Q1019 RF00.0/000.0
Conditions at: YSNF (NORFOLK ISLAND A, AU) observed 1000 UTC 19 March 2019
Temperature: 22.0°C (72°F)
Dewpoint: 19.0°C (66°F) [RH = 83%]
Pressure (altimeter): 30.09 inches Hg (1019.0 mb)
Winds: from the E (80 degrees) at 13 MPH (11 knots; 5.7 m/s)
Visibility: 6 or more miles (10+ km)
Ceiling: 1900 feet AGL
Clouds: broken clouds at 1900 feet AGL
Weather: no significant weather observed at this time

METAR text: YSNF 190930Z AUTO 07011KT 9999 // SCT019 22/18 Q1019 RF00.0/000.0
Conditions at: YSNF (NORFOLK ISLAND A, AU) observed 0930 UTC 19 March 2019
Temperature: 22.0°C (72°F)
Dewpoint: 18.0°C (64°F) [RH = 78%]
Pressure (altimeter): 30.09 inches Hg (1019.0 mb)
Winds: from the ENE (70 degrees) at 13 MPH (11 knots; 5.7 m/s)
Visibility: 6 or more miles (10+ km)
Ceiling: at least 12,000 feet AGL
Clouds: scattered clouds at 1900 feet AGL
Weather: no significant weather observed at this time

METAR text: YSNF 190900Z AUTO 08013KT 9999 // SCT017 SCT021 22/19 Q1018
Conditions at: YSNF (NORFOLK ISLAND A, AU) observed 0900 UTC 19 March 2019
Temperature: 22.0°C (72°F)
Dewpoint: 19.0°C (66°F) [RH = 83%]
Pressure (altimeter): 30.06 inches Hg (1018.0 mb)
Winds: from the E (80 degrees) at 15 MPH (13 knots; 6.7 m/s)
Visibility: 6 or more miles (10+ km)
Ceiling: at least 12,000 feet AGL
Clouds: scattered clouds at 1700 feet AGL
scattered clouds at 2100 feet AGL
Weather: no significant weather observed at this time

METAR text: YSNF 190830Z AUTO 08013KT 9999 // SCT017 BKN025 22/19 Q1018
Conditions at: YSNF (NORFOLK ISLAND A, AU) observed 0830 UTC 19 March 2019
Temperature: 22.0°C (72°F)
Dewpoint: 19.0°C (66°F) [RH = 83%]
Pressure (altimeter): 30.06 inches Hg (1018.0 mb)
Winds: from the E (80 degrees) at 15 MPH (13 knots; 6.7 m/s)
Visibility: 6 or more miles (10+ km)
Ceiling: 2500 feet AGL
Clouds: scattered clouds at 1700 feet AGL
broken clouds at 2500 feet AGL
Weather: no significant weather observed at this time

METAR text: YSNF 190800Z AUTO 07012KT 9999 // SCT015 22/19 Q1018
Conditions at: YSNF (NORFOLK ISLAND A, AU) observed 0800 UTC 19 March 2019
Temperature: 22.0°C (72°F)
Dewpoint: 19.0°C (66°F) [RH = 83%]
Pressure (altimeter): 30.06 inches Hg (1018.0 mb)
Winds: from the ENE (70 degrees) at 14 MPH (12 knots; 6.2 m/s)
Visibility: 6 or more miles (10+ km)
Ceiling: at least 12,000 feet AGL
Clouds: scattered clouds at 1500 feet AGL
Weather: no significant weather observed at this time

METAR text: YSNF 190730Z AUTO 07012KT 9999 // BKN017 BKN024 OVC038 23/19 Q1017
Conditions at: YSNF (NORFOLK ISLAND A, AU) observed 0730 UTC 19 March 2019
Temperature: 23.0°C (73°F)
Dewpoint: 19.0°C (66°F) [RH = 78%]
Pressure (altimeter): 30.03 inches Hg (1017.0 mb)
Winds: from the ENE (70 degrees) at 14 MPH (12 knots; 6.2 m/s)
Visibility: 6 or more miles (10+ km)
Ceiling: 1700 feet AGL
Clouds: broken clouds at 1700 feet AGL
broken clouds at 2400 feet AGL
overcast cloud deck at 3800 feet AGL
Weather: no significant weather observed at this time

METAR text: YSNF 190700Z AUTO 08010KT 9999 // BKN017 OVC025 23/20 Q1017
Conditions at: YSNF (NORFOLK ISLAND A, AU) observed 0700 UTC 19 March 2019
Temperature: 23.0°C (73°F)
Dewpoint: 20.0°C (68°F) [RH = 83%]
Pressure (altimeter): 30.03 inches Hg (1017.0 mb)
Winds: from the E (80 degrees) at 12 MPH (10 knots; 5.1 m/s)
Visibility: 6 or more miles (10+ km)
Ceiling: 1700 feet AGL
Clouds: broken clouds at 1700 feet AGL
overcast cloud deck at 2500 feet AGL
Weather: no significant weather observed at this time

METAR text: YSNF 190630Z AUTO 08012KT 9999 // BKN017 OVC023 23/20 Q1017
Conditions at: YSNF (NORFOLK ISLAND A, AU) observed 0630 UTC 19 March 2019
Temperature: 23.0°C (73°F)
Dewpoint: 20.0°C (68°F) [RH = 83%]
Pressure (altimeter): 30.03 inches Hg (1017.0 mb)
Winds: from the E (80 degrees) at 14 MPH (12 knots; 6.2 m/s)
Visibility: 6 or more miles (10+ km)
Ceiling: 1700 feet AGL
Clouds: broken clouds at 1700 feet AGL
overcast cloud deck at 2300 feet AGL
Weather: no significant weather observed at this time

METAR text: YSNF 190600Z AUTO 07011KT 9999 // BKN017 BKN020 23/19 Q1017
Conditions at: YSNF (NORFOLK ISLAND A, AU) observed 0600 UTC 19 March 2019
Temperature: 23.0°C (73°F)
Dewpoint: 19.0°C (66°F) [RH = 78%]
Pressure (altimeter): 30.03 inches Hg (1017.0 mb)
Winds: from the ENE (70 degrees) at 13 MPH (11 knots; 5.7 m/s)
Visibility: 6 or more miles (10+ km)
Ceiling: 1700 feet AGL
Clouds: broken clouds at 1700 feet AGL
broken clouds at 2000 feet AGL
Weather: no significant weather observed at this time

METAR text: YSNF 190530Z AUTO 07014KT 9999 // SCT019 BKN024 24/20 Q1017
Conditions at: YSNF (NORFOLK ISLAND A, AU) observed 0530 UTC 19 March 2019
Temperature: 24.0°C (75°F)
Dewpoint: 20.0°C (68°F) [RH = 78%]
Pressure (altimeter): 30.03 inches Hg (1017.0 mb)
Winds: from the ENE (70 degrees) at 16 MPH (14 knots; 7.2 m/s)
Visibility: 6 or more miles (10+ km)
Ceiling: 2400 feet AGL
Clouds: scattered clouds at 1900 feet AGL
broken clouds at 2400 feet AGL
Weather: no significant weather observed at this time

METAR text: YSNF 190500Z AUTO 07012KT 9999 // SCT019 24/19 Q1017
Conditions at: YSNF (NORFOLK ISLAND A, AU) observed 0500 UTC 19 March 2019
Temperature: 24.0°C (75°F)
Dewpoint: 19.0°C (66°F) [RH = 74%]
Pressure (altimeter): 30.03 inches Hg (1017.0 mb)
Winds: from the ENE (70 degrees) at 14 MPH (12 knots; 6.2 m/s)
Visibility: 6 or more miles (10+ km)
Ceiling: at least 12,000 feet AGL
Clouds: scattered clouds at 1900 feet AGL
Weather: no significant weather observed at this time

METAR text: YSNF 190430Z AUTO 06013KT 9999 // SCT017 24/20 Q1016 RF00.0/000.0
Conditions at: YSNF (NORFOLK ISLAND A, AU) observed 0430 UTC 19 March 2019
Temperature: 24.0°C (75°F)
Dewpoint: 20.0°C (68°F) [RH = 78%]
Pressure (altimeter): 30.00 inches Hg (1016.0 mb)
Winds: from the ENE (60 degrees) at 15 MPH (13 knots; 6.7 m/s)
Visibility: 6 or more miles (10+ km)
Ceiling: at least 12,000 feet AGL
Clouds: scattered clouds at 1700 feet AGL
Weather: no significant weather observed at this time

METAR text: YSNF 190400Z 07013KT 9999 FEW019 25/20 Q1017
Conditions at: YSNF (NORFOLK ISLAND A, AU) observed 0400 UTC 19 March 2019
Temperature: 25.0°C (77°F)
Dewpoint: 20.0°C (68°F) [RH = 74%]
Pressure (altimeter): 30.03 inches Hg (1017.0 mb)
Winds: from the ENE (70 degrees) at 15 MPH (13 knots; 6.7 m/s)
Visibility: 6 or more miles (10+ km)
Ceiling: at least 12,000 feet AGL
Clouds: few clouds at 1900 feet AGL
Weather: no significant weather observed at this time

METAR text: YSNF 190330Z 07016KT 9999 SCT019 25/19 Q1017
Conditions at: YSNF (NORFOLK ISLAND A, AU) observed 0330 UTC 19 March 2019
Temperature: 25.0°C (77°F)
Dewpoint: 19.0°C (66°F) [RH = 69%]
Pressure (altimeter): 30.03 inches Hg (1017.0 mb)
Winds: from the ENE (70 degrees) at 18 MPH (16 knots; 8.2 m/s)
Visibility: 6 or more miles (10+ km)
Ceiling: at least 12,000 feet AGL
Clouds: scattered clouds at 1900 feet AGL
Weather: no significant weather observed at this time

Forecast for: YSNF (NORFOLK ISLAND A, AU)
Text: TAF YSNF 201108Z 2012/2112 08014KT 9999 -SHRA SCT015 BKN020 INTER 2012/2101 4000 SHRA BKN012
Forecast period: 1200 UTC 20 March 2019 to 1200 UTC 21 March 2019
Forecast type: FROM: standard forecast or significant change
Winds: from the E (80 degrees) at 16 MPH (14 knots; 7.2 m/s)
Visibility: 6 or more miles 10+ km)
Ceiling: 2000 feet AGL
Clouds: scattered clouds at 1500 feet AGL
broken clouds at 2000 feet AGL
Weather: -SHRA  (light rain showers)
Text:
Forecast period: 1200 UTC 20 March 2019 to 0100 UTC 21 March 2019
Forecast type: TEMPORARY: The following changes expected for less than half the time period
Visibility: 2.49 miles (4.01 km)
Ceiling: 1200 feet AGL
Clouds: broken clouds at 1200 feet AGL
Weather: SHRA  (rain showers)